Weather at Matak Airport

Public forecast

Using degrees Celsius for public forecast. Weather courtesy of forecast.io.

Closest aviation weather report (METAR) to Matak Airport

Closest report is Mersing Airport, 154.1 nm (285.4 km) WSW.

2024/05/21 07:00 (retrieved 20 minutes ago)

WMAU 210700Z 11012KT 050V130 9999 SCT020 34/28 Q1006

Closest aviation forecast (TAF) to Matak Airport

Closest forecast is Tioman Airport, 129.7 nm (240.3 km) WSW.

2024/05/21 06:00 (retrieved 1 hour ago)

TAF WMBT 210500Z 2106/2206 24005KT 9999 FEW020